createdAt,value
2023-12-16T00:49:53.173Z,11.78
2023-12-16T00:52:19.923Z,11.79
2023-12-16T00:54:46.599Z,11.78
2023-12-16T00:57:13.204Z,11.78
2023-12-16T00:59:39.815Z,11.77
2023-12-16T01:02:06.581Z,11.77
2023-12-16T01:04:33.195Z,11.77
2023-12-16T01:07:00.022Z,11.76
2023-12-16T01:09:26.619Z,11.76
2023-12-16T01:11:53.209Z,11.75
2023-12-16T01:14:19.786Z,11.75
2023-12-16T01:16:46.356Z,11.75
2023-12-16T01:19:13.072Z,11.74
2023-12-16T01:21:43.330Z,11.75
2023-12-16T01:24:10.101Z,11.74
2023-12-16T01:26:37.365Z,11.75
2023-12-16T01:29:03.954Z,11.73
2023-12-16T01:31:30.590Z,11.74
2023-12-16T01:33:57.328Z,11.73
2023-12-16T01:36:23.955Z,11.73
2023-12-16T01:38:50.580Z,11.74
2023-12-16T01:41:17.257Z,11.73
2023-12-16T01:43:43.906Z,11.73
2023-12-16T01:46:11.036Z,11.73
2023-12-16T01:48:38.387Z,11.73
2023-12-16T01:51:05.584Z,11.75
2023-12-16T01:53:33.789Z,11.74
2023-12-16T01:56:00.528Z,11.74
2023-12-16T01:58:27.187Z,11.74
2023-12-16T02:00:54.081Z,11.74
2023-12-16T02:03:21.715Z,11.75
2023-12-16T02:05:48.387Z,11.76
2023-12-16T02:08:14.966Z,11.73
2023-12-16T02:10:41.590Z,11.74
2023-12-16T02:13:08.203Z,11.75
2023-12-16T02:15:34.794Z,11.75
2023-12-16T02:18:01.402Z,11.75
2023-12-16T02:20:28.107Z,11.75
2023-12-16T02:22:55.182Z,11.74
2023-12-16T02:25:21.993Z,11.76
2023-12-16T02:27:48.929Z,11.75
2023-12-16T02:30:15.721Z,11.76
2023-12-16T02:32:45.339Z,11.75
2023-12-16T02:35:11.993Z,11.75
2023-12-16T02:37:38.881Z,11.75
2023-12-16T02:40:06.435Z,11.76
2023-12-16T02:42:33.114Z,11.75
2023-12-16T02:44:59.704Z,11.77
2023-12-16T02:47:26.309Z,11.78
2023-12-16T02:49:53.024Z,11.79
2023-12-16T02:52:19.766Z,11.77
2023-12-16T02:54:46.431Z,11.78
2023-12-16T02:57:13.114Z,11.79
2023-12-16T02:59:40.494Z,11.79
2023-12-16T03:02:07.063Z,11.80
2023-12-16T03:04:33.704Z,11.78
2023-12-16T03:07:00.480Z,11.81
2023-12-16T03:09:27.090Z,11.81
2023-12-16T03:11:53.950Z,11.81
2023-12-16T03:14:20.553Z,11.78
2023-12-16T03:16:47.186Z,11.80
2023-12-16T03:19:13.890Z,11.80
2023-12-16T03:21:40.753Z,11.81
2023-12-16T03:24:07.326Z,11.79
2023-12-16T03:26:33.857Z,11.80
2023-12-16T03:29:00.463Z,11.80
2023-12-16T03:31:27.046Z,11.82
2023-12-16T03:33:54.766Z,11.80
2023-12-16T03:36:21.445Z,11.80
2023-12-16T03:38:48.051Z,11.76
2023-12-16T03:41:14.716Z,11.77
2023-12-16T03:43:41.308Z,11.77
2023-12-16T03:46:09.350Z,11.77
2023-12-16T03:48:36.324Z,11.76
2023-12-16T03:51:02.954Z,11.75
2023-12-16T03:53:29.523Z,11.72
2023-12-16T03:55:56.130Z,11.73
2023-12-16T03:58:22.782Z,11.74
2023-12-16T04:00:49.628Z,11.71
2023-12-16T04:03:16.770Z,11.73
2023-12-16T04:05:43.908Z,11.73
2023-12-16T04:08:10.538Z,11.72
2023-12-16T04:10:37.127Z,11.71
2023-12-16T04:13:03.790Z,11.72
2023-12-16T04:15:30.494Z,11.72
2023-12-16T04:17:57.211Z,11.70
2023-12-16T04:20:23.849Z,11.71
2023-12-16T04:22:50.383Z,11.71
2023-12-16T04:25:17.020Z,11.71
2023-12-16T04:27:43.581Z,11.71
2023-12-16T04:30:10.588Z,11.71
2023-12-16T04:32:37.325Z,11.70
2023-12-16T04:35:04.065Z,11.69
2023-12-16T04:37:30.632Z,11.69
2023-12-16T04:39:57.309Z,11.70
2023-12-16T04:42:23.880Z,11.68
2023-12-16T04:44:50.466Z,11.69
2023-12-16T04:47:17.068Z,11.68
2023-12-16T04:49:43.676Z,11.66
2023-12-16T04:52:10.323Z,11.68
2023-12-16T04:54:36.907Z,11.67
2023-12-16T04:57:04.100Z,11.67
2023-12-16T04:59:30.704Z,11.67
2023-12-16T05:01:57.397Z,11.68
2023-12-16T05:04:24.113Z,11.67
2023-12-16T05:06:52.398Z,11.67
2023-12-16T05:09:21.029Z,11.69
2023-12-16T05:11:47.644Z,11.67
2023-12-16T05:14:14.204Z,11.68
2023-12-16T05:16:40.733Z,11.68
2023-12-16T05:19:07.873Z,11.70
2023-12-16T05:21:34.579Z,11.69
2023-12-16T05:24:01.305Z,11.69
2023-12-16T05:26:27.971Z,11.68
2023-12-16T05:28:54.600Z,11.70
2023-12-16T05:31:21.298Z,11.70
2023-12-16T05:33:48.149Z,11.70
2023-12-16T05:36:14.865Z,11.70
2023-12-16T05:38:41.478Z,11.70
2023-12-16T05:41:08.152Z,11.71
2023-12-16T05:43:35.285Z,11.71
2023-12-16T05:46:01.967Z,11.70
2023-12-16T05:48:28.719Z,11.72
2023-12-16T05:50:55.350Z,11.71
2023-12-16T05:53:21.935Z,11.74
2023-12-16T05:55:48.778Z,11.73
2023-12-16T05:58:17.866Z,11.72
2023-12-16T06:00:46.055Z,11.73
2023-12-16T06:03:13.038Z,11.74
2023-12-16T06:05:39.703Z,11.73
2023-12-16T06:08:06.602Z,11.76
2023-12-16T06:10:33.230Z,11.74
2023-12-16T06:12:59.894Z,11.73
2023-12-16T06:15:26.508Z,11.74
2023-12-16T06:17:53.319Z,11.74
2023-12-16T06:20:20.021Z,11.74
2023-12-16T06:22:46.678Z,11.74
2023-12-16T06:25:13.336Z,11.76
2023-12-16T06:27:42.133Z,11.73
2023-12-16T06:30:10.235Z,11.74
2023-12-16T06:32:37.109Z,11.75
2023-12-16T06:35:03.885Z,11.75
2023-12-16T06:37:30.488Z,11.76
2023-12-16T06:39:57.126Z,11.76
2023-12-16T06:42:23.725Z,11.76
2023-12-16T06:44:50.246Z,11.78
2023-12-16T06:47:16.850Z,11.77
2023-12-16T06:49:43.425Z,11.77
2023-12-16T06:52:10.107Z,11.77
2023-12-16T06:54:36.752Z,11.75
2023-12-16T06:57:03.396Z,11.76
2023-12-16T06:59:32.229Z,11.75
2023-12-16T07:01:58.875Z,11.77
2023-12-16T07:04:25.692Z,11.77
2023-12-16T07:06:52.330Z,11.77
2023-12-16T07:09:18.938Z,11.75
2023-12-16T07:11:45.547Z,11.76
2023-12-16T07:14:12.179Z,11.76
2023-12-16T07:16:38.796Z,11.76
2023-12-16T07:19:05.542Z,11.77
2023-12-16T07:21:32.201Z,11.77
2023-12-16T07:23:58.793Z,11.76
2023-12-16T07:26:25.351Z,11.76
2023-12-16T07:28:52.077Z,11.76
2023-12-16T07:31:18.812Z,11.74
2023-12-16T07:33:45.860Z,11.73
2023-12-16T07:36:12.574Z,11.74
2023-12-16T07:38:39.180Z,11.72
2023-12-16T07:41:05.926Z,11.68
2023-12-16T07:43:32.633Z,11.69
2023-12-16T07:45:59.436Z,11.69
2023-12-16T07:48:26.197Z,11.68
2023-12-16T07:50:55.373Z,11.67
2023-12-16T07:53:22.663Z,11.65
2023-12-16T07:55:50.083Z,11.64
2023-12-16T07:58:16.892Z,11.63
2023-12-16T08:00:43.619Z,11.62
2023-12-16T08:03:10.396Z,11.60
2023-12-16T08:05:37.056Z,11.59
2023-12-16T08:08:03.936Z,11.59
2023-12-16T08:10:31.177Z,11.59
2023-12-16T08:12:57.835Z,11.59
2023-12-16T08:15:24.675Z,11.57
2023-12-16T08:17:51.337Z,11.56
2023-12-16T08:20:17.989Z,11.56
2023-12-16T08:22:44.584Z,11.56
2023-12-16T08:25:11.208Z,11.57
2023-12-16T08:27:38.100Z,11.57
2023-12-16T08:30:05.075Z,11.59
2023-12-16T08:32:31.756Z,11.62
2023-12-16T08:34:58.438Z,11.66
2023-12-16T08:37:25.077Z,11.69
2023-12-16T08:39:51.719Z,11.74
2023-12-16T08:42:18.359Z,11.78
2023-12-16T08:44:44.939Z,11.82
2023-12-16T08:47:11.554Z,11.87
2023-12-16T08:49:38.195Z,11.93
2023-12-16T08:52:04.991Z,11.98
2023-12-16T08:54:31.536Z,12.05
2023-12-16T08:56:58.182Z,12.09
2023-12-16T08:59:24.773Z,12.16
2023-12-16T09:01:51.408Z,12.21
2023-12-16T09:04:17.993Z,12.26
2023-12-16T09:06:45.303Z,12.31
2023-12-16T09:09:13.884Z,12.33
2023-12-16T09:11:41.297Z,12.40
2023-12-16T09:14:07.902Z,12.45
2023-12-16T09:16:36.178Z,12.50
2023-12-16T09:19:04.964Z,12.59
2023-12-16T09:21:31.763Z,12.66
2023-12-16T09:23:58.388Z,12.75
2023-12-16T09:26:25.406Z,12.80
2023-12-16T09:28:52.549Z,12.89
2023-12-16T09:31:19.486Z,12.99
2023-12-16T09:33:46.214Z,13.06
2023-12-16T09:36:15.681Z,13.13
2023-12-16T09:38:42.673Z,13.16
2023-12-16T09:41:21.607Z,13.17
2023-12-16T09:43:51.280Z,13.25
2023-12-16T09:46:18.215Z,13.26
2023-12-16T09:48:45.021Z,13.28
2023-12-16T09:51:11.614Z,13.30
2023-12-16T09:53:38.188Z,13.32
2023-12-16T09:56:05.842Z,13.32
2023-12-16T09:58:34.257Z,13.32
2023-12-16T10:01:02.582Z,13.32
2023-12-16T10:03:29.844Z,13.33
2023-12-16T10:05:56.639Z,13.30
2023-12-16T10:08:23.247Z,13.24
2023-12-16T10:11:05.469Z,13.25
2023-12-16T10:13:54.407Z,13.26
2023-12-16T10:16:25.351Z,13.18
2023-12-16T10:18:55.935Z,13.19
2023-12-16T10:21:25.610Z,13.19
2023-12-16T10:23:52.888Z,13.18
2023-12-16T10:26:19.610Z,13.15
2023-12-16T10:28:47.960Z,13.16
2023-12-16T10:31:15.077Z,13.15
2023-12-16T10:33:41.806Z,13.15
2023-12-16T10:36:09.409Z,13.14
2023-12-16T10:38:35.981Z,13.11
2023-12-16T10:41:02.550Z,13.13
2023-12-16T10:43:30.220Z,13.14
2023-12-16T10:45:57.085Z,13.15
2023-12-16T10:48:26.823Z,13.14
2023-12-16T10:50:55.118Z,13.14
2023-12-16T10:53:25.436Z,13.12
2023-12-16T10:55:54.929Z,13.12
2023-12-16T10:58:36.610Z,13.15
2023-12-16T11:01:07.019Z,13.19
2023-12-16T11:03:48.363Z,13.19
2023-12-16T11:06:17.994Z,13.21
2023-12-16T11:08:45.689Z,13.25
2023-12-16T11:11:12.584Z,13.29
2023-12-16T11:13:39.565Z,13.31
2023-12-16T11:16:10.349Z,13.32
2023-12-16T11:18:37.487Z,13.35
2023-12-16T11:21:06.374Z,13.37
2023-12-16T11:23:33.142Z,13.38
2023-12-16T11:26:03.990Z,13.43
2023-12-16T11:28:30.893Z,13.43
2023-12-16T11:30:58.136Z,13.46
2023-12-16T11:33:25.017Z,13.42
2023-12-16T11:35:52.114Z,13.48
2023-12-16T11:38:37.316Z,13.48
2023-12-16T11:41:03.934Z,13.47
2023-12-16T11:43:50.210Z,13.49
2023-12-16T11:46:32.627Z,13.52
2023-12-16T11:48:59.358Z,13.50
2023-12-16T11:51:26.058Z,13.49
2023-12-16T11:53:52.634Z,13.52
2023-12-16T11:56:21.158Z,13.50
2023-12-16T11:58:47.756Z,13.51
2023-12-16T12:01:14.410Z,13.40
2023-12-16T12:03:41.043Z,13.46
2023-12-16T12:06:07.773Z,13.41
2023-12-16T12:08:34.377Z,13.48
2023-12-16T12:11:00.974Z,13.45
2023-12-16T12:13:27.601Z,13.48
2023-12-16T12:15:54.270Z,13.51
2023-12-16T12:18:20.866Z,13.48
2023-12-16T12:20:47.569Z,13.46
2023-12-16T12:23:14.177Z,13.47
2023-12-16T12:25:40.883Z,13.50
2023-12-16T12:28:11.051Z,13.50
2023-12-16T12:30:37.675Z,13.55
2023-12-16T12:33:04.455Z,13.52
2023-12-16T12:35:31.582Z,13.56
2023-12-16T12:37:58.492Z,13.57
2023-12-16T12:40:26.176Z,13.55
2023-12-16T12:42:54.875Z,13.54
2023-12-16T12:45:24.708Z,13.50
2023-12-16T12:47:52.504Z,13.58
2023-12-16T12:50:19.862Z,13.55
2023-12-16T12:53:18.052Z,13.57
2023-12-16T12:55:33.003Z,13.58
2023-12-16T12:58:07.067Z,13.60
2023-12-16T13:00:37.968Z,13.59
2023-12-16T13:03:04.657Z,13.62
2023-12-16T13:05:31.351Z,13.64
2023-12-16T13:07:57.997Z,13.64
2023-12-16T13:10:24.577Z,13.66
2023-12-16T13:12:55.940Z,13.58
2023-12-16T13:15:23.457Z,13.62
2023-12-16T13:17:50.133Z,13.68
2023-12-16T13:20:16.880Z,13.72
2023-12-16T13:22:43.551Z,13.68
2023-12-16T13:25:13.381Z,13.75
2023-12-16T13:27:41.735Z,13.74
2023-12-16T13:30:10.192Z,13.73
2023-12-16T13:32:38.131Z,13.81
2023-12-16T13:35:05.286Z,13.80
2023-12-16T13:37:32.573Z,13.82
2023-12-16T13:40:04.773Z,13.81
2023-12-16T13:42:31.329Z,13.84
2023-12-16T13:44:57.897Z,13.88
2023-12-16T13:47:24.569Z,13.81
2023-12-16T13:49:51.268Z,13.85
2023-12-16T13:52:17.909Z,13.91
2023-12-16T13:54:44.485Z,13.91
2023-12-16T13:57:11.226Z,13.93
2023-12-16T13:59:38.022Z,13.92
2023-12-16T14:02:04.821Z,13.93
2023-12-16T14:04:31.886Z,13.89
2023-12-16T14:06:58.604Z,13.91
2023-12-16T14:09:25.216Z,13.88
2023-12-16T14:11:51.864Z,13.90
2023-12-16T14:14:19.180Z,13.82
2023-12-16T14:16:45.743Z,13.88
2023-12-16T14:19:12.395Z,13.86
2023-12-16T14:21:39.093Z,13.88
2023-12-16T14:24:05.824Z,13.88
2023-12-16T14:26:32.535Z,13.86
2023-12-16T14:28:59.114Z,13.86
2023-12-16T14:31:26.716Z,13.85
2023-12-16T14:33:53.347Z,13.83
2023-12-16T14:36:20.032Z,13.83
2023-12-16T14:38:46.681Z,13.83
2023-12-16T14:41:14.049Z,13.82
2023-12-16T14:43:40.815Z,13.79
2023-12-16T14:46:07.376Z,13.77
2023-12-16T14:48:34.241Z,13.76
2023-12-16T14:51:00.869Z,13.68
2023-12-16T14:53:27.445Z,13.79
2023-12-16T14:55:55.622Z,13.75
2023-12-16T14:58:22.231Z,13.73
2023-12-16T15:00:48.945Z,13.76
2023-12-16T15:03:15.728Z,13.74
2023-12-16T15:05:43.073Z,13.72
2023-12-16T15:08:09.715Z,13.70
2023-12-16T15:10:37.168Z,13.73
2023-12-16T15:13:08.582Z,13.70
2023-12-16T15:15:35.581Z,13.71
2023-12-16T15:18:02.364Z,13.70
2023-12-16T15:20:30.940Z,13.71
2023-12-16T15:22:57.669Z,13.72
2023-12-16T15:25:24.276Z,13.70
2023-12-16T15:27:50.851Z,13.71
2023-12-16T15:30:17.633Z,13.68
2023-12-16T15:32:44.588Z,13.68
2023-12-16T15:35:11.307Z,13.64
2023-12-16T15:37:38.240Z,13.69
2023-12-16T15:40:08.038Z,13.70
2023-12-16T15:42:34.610Z,13.68
2023-12-16T15:45:01.253Z,13.65
2023-12-16T15:47:27.900Z,13.67
2023-12-16T15:49:55.157Z,13.68
2023-12-16T15:52:22.141Z,13.68
2023-12-16T15:54:48.872Z,13.67
2023-12-16T15:57:16.026Z,13.68
2023-12-16T15:59:42.734Z,13.65
2023-12-16T16:02:09.519Z,13.66
2023-12-16T16:04:36.895Z,13.66
2023-12-16T16:07:04.411Z,13.67
2023-12-16T16:09:31.042Z,13.64
2023-12-16T16:11:57.660Z,13.60
2023-12-16T16:14:24.237Z,13.65
2023-12-16T16:16:51.469Z,13.63
2023-12-16T16:19:18.203Z,13.63
2023-12-16T16:21:45.075Z,13.60
2023-12-16T16:24:11.780Z,13.57
2023-12-16T16:26:38.845Z,13.58
2023-12-16T16:29:05.578Z,13.56
2023-12-16T16:31:37.184Z,13.56
2023-12-16T16:34:04.057Z,13.56
2023-12-16T16:36:31.108Z,13.53
2023-12-16T16:38:59.444Z,13.52
2023-12-16T16:41:26.710Z,13.51
2023-12-16T16:43:53.279Z,13.50
2023-12-16T16:46:19.885Z,13.47
2023-12-16T16:48:46.599Z,13.45
2023-12-16T16:51:13.571Z,13.41
2023-12-16T16:53:40.281Z,13.45
2023-12-16T16:56:07.178Z,13.44
2023-12-16T16:58:33.773Z,13.42
2023-12-16T17:01:00.368Z,13.41
2023-12-16T17:03:27.107Z,13.38
2023-12-16T17:05:53.748Z,13.35
2023-12-16T17:08:20.365Z,13.36
2023-12-16T17:10:46.911Z,13.31
2023-12-16T17:13:14.302Z,13.34
2023-12-16T17:15:40.887Z,13.31
2023-12-16T17:18:08.817Z,13.28
2023-12-16T17:20:35.545Z,13.29
2023-12-16T17:23:02.113Z,13.29
2023-12-16T17:25:28.738Z,13.24
2023-12-16T17:27:55.262Z,13.22
2023-12-16T17:30:22.119Z,13.18
2023-12-16T17:32:48.832Z,13.13
2023-12-16T17:35:15.505Z,13.17
2023-12-16T17:37:42.097Z,13.13
2023-12-16T17:40:09.078Z,13.12
2023-12-16T17:42:35.635Z,13.15
2023-12-16T17:45:02.309Z,13.04
2023-12-16T17:47:28.984Z,13.12
2023-12-16T17:49:55.606Z,13.08
2023-12-16T17:52:22.200Z,13.09
2023-12-16T17:54:48.778Z,13.08
2023-12-16T17:57:15.635Z,13.09
2023-12-16T17:59:42.243Z,13.10
2023-12-16T18:02:10.740Z,13.08
2023-12-16T18:04:37.337Z,13.07
2023-12-16T18:07:03.993Z,13.04
2023-12-16T18:09:30.748Z,13.05
2023-12-16T18:11:58.989Z,13.05
2023-12-16T18:14:25.724Z,13.07
2023-12-16T18:16:53.781Z,13.06
2023-12-16T18:19:20.624Z,13.06
2023-12-16T18:21:47.349Z,13.02
2023-12-16T18:24:13.949Z,13.04
2023-12-16T18:26:40.560Z,13.03
2023-12-16T18:29:07.723Z,13.02
2023-12-16T18:31:34.345Z,12.98
2023-12-16T18:34:00.945Z,13.01
2023-12-16T18:36:28.205Z,13.02
2023-12-16T18:38:54.736Z,13.00
2023-12-16T18:41:21.405Z,12.99
2023-12-16T18:43:48.462Z,12.99
2023-12-16T18:46:15.102Z,12.99
2023-12-16T18:48:42.455Z,12.97
2023-12-16T18:51:09.187Z,12.97
2023-12-16T18:53:35.808Z,12.96
2023-12-16T18:56:02.570Z,12.95
2023-12-16T18:58:30.416Z,12.98
2023-12-16T19:00:57.150Z,12.95
2023-12-16T19:03:23.865Z,12.95
2023-12-16T19:05:50.561Z,12.87
2023-12-16T19:08:18.784Z,12.96
2023-12-16T19:10:45.454Z,12.94
2023-12-16T19:13:12.139Z,12.95
2023-12-16T19:15:38.774Z,12.95
2023-12-16T19:18:05.578Z,12.96
2023-12-16T19:20:32.253Z,12.95
2023-12-16T19:22:58.963Z,12.95
2023-12-16T19:25:25.653Z,12.97
2023-12-16T19:27:52.230Z,12.96
2023-12-16T19:30:18.994Z,12.97
2023-12-16T19:32:45.746Z,12.96
2023-12-16T19:35:12.390Z,12.99
2023-12-16T19:37:39.550Z,13.00
2023-12-16T19:40:06.532Z,13.01
2023-12-16T19:42:33.241Z,12.98
2023-12-16T19:44:59.911Z,12.97
2023-12-16T19:47:27.073Z,12.99
2023-12-16T19:49:54.218Z,13.01
2023-12-16T19:52:20.856Z,13.00
2023-12-16T19:54:47.604Z,13.03
2023-12-16T19:57:14.630Z,13.03
2023-12-16T19:59:42.936Z,13.03
2023-12-16T20:02:09.622Z,12.99
2023-12-16T20:04:36.185Z,13.02
2023-12-16T20:07:02.834Z,13.03
2023-12-16T20:09:29.429Z,13.03
2023-12-16T20:11:56.074Z,13.04
2023-12-16T20:14:22.688Z,13.04
2023-12-16T20:16:49.257Z,13.03
2023-12-16T20:19:16.328Z,13.04
2023-12-16T20:21:42.974Z,13.08
2023-12-16T20:24:09.690Z,13.10
2023-12-16T20:26:36.360Z,13.06
2023-12-16T20:29:02.986Z,13.06
2023-12-16T20:31:29.654Z,13.11
2023-12-16T20:33:58.317Z,13.08
2023-12-16T20:36:28.761Z,13.07
2023-12-16T20:39:13.929Z,13.09
2023-12-16T20:41:40.589Z,13.13
2023-12-16T20:44:07.200Z,13.08
2023-12-16T20:46:33.754Z,13.13
2023-12-16T20:49:01.298Z,13.16
2023-12-16T20:51:27.956Z,13.15
2023-12-16T20:53:55.074Z,13.16
2023-12-16T20:56:21.735Z,13.18
2023-12-16T20:58:48.398Z,13.18
2023-12-16T21:01:14.940Z,13.14
2023-12-16T21:03:43.692Z,13.18
2023-12-16T21:06:10.561Z,13.18
2023-12-16T21:08:37.366Z,13.20
2023-12-16T21:11:04.031Z,13.21
2023-12-16T21:13:30.644Z,13.22
2023-12-16T21:15:57.243Z,13.22
2023-12-16T21:18:23.995Z,13.22
2023-12-16T21:20:50.751Z,13.23
2023-12-16T21:23:17.373Z,13.22
2023-12-16T21:25:44.856Z,13.20
2023-12-16T21:28:12.604Z,13.24
2023-12-16T21:30:39.288Z,13.20
2023-12-16T21:33:06.136Z,13.22
2023-12-16T21:35:32.877Z,13.19
2023-12-16T21:38:00.569Z,13.20
2023-12-16T21:40:27.198Z,13.19
2023-12-16T21:42:55.516Z,13.22
2023-12-16T21:45:22.157Z,13.20
2023-12-16T21:47:48.941Z,13.22
2023-12-16T21:50:15.668Z,13.14
2023-12-16T21:52:42.268Z,13.17
2023-12-16T21:55:08.839Z,13.19
2023-12-16T21:57:35.986Z,13.16
2023-12-16T22:00:02.618Z,13.18
2023-12-16T22:02:29.383Z,13.13
2023-12-16T22:04:56.025Z,13.15
2023-12-16T22:07:22.628Z,13.19
2023-12-16T22:09:49.276Z,13.12
2023-12-16T22:12:15.986Z,13.20
2023-12-16T22:14:42.849Z,13.18
2023-12-16T22:17:09.739Z,13.19
2023-12-16T22:19:36.419Z,13.19
2023-12-16T22:22:03.091Z,13.16
2023-12-16T22:24:29.636Z,13.22
2023-12-16T22:26:56.251Z,13.20
2023-12-16T22:29:22.841Z,13.15
2023-12-16T22:31:49.351Z,13.17
2023-12-16T22:34:16.072Z,13.18
2023-12-16T22:36:42.695Z,13.18
2023-12-16T22:39:09.551Z,13.18
2023-12-16T22:41:36.261Z,13.18
2023-12-16T22:44:02.806Z,13.17
2023-12-16T22:46:29.633Z,13.18
2023-12-16T22:48:56.382Z,13.17
2023-12-16T22:51:23.315Z,13.14
2023-12-16T22:53:50.114Z,13.18
2023-12-16T22:56:17.641Z,13.12
2023-12-16T22:58:44.289Z,13.16
2023-12-16T23:01:10.937Z,13.21
2023-12-16T23:03:37.981Z,13.19
2023-12-16T23:06:04.991Z,13.18
2023-12-16T23:08:31.556Z,13.22
2023-12-16T23:10:58.097Z,13.26
2023-12-16T23:13:24.795Z,13.28
2023-12-16T23:15:51.364Z,13.31
2023-12-16T23:18:18.059Z,13.30
2023-12-16T23:20:44.836Z,13.31
2023-12-16T23:23:11.437Z,13.32
2023-12-16T23:25:37.974Z,13.33
